createdAt,value
2022-12-18T00:00:01.857Z,998.8
2022-12-18T00:01:02.464Z,998.9
2022-12-18T00:02:02.337Z,998.9
2022-12-18T00:03:01.552Z,998.9
2022-12-18T00:04:04.084Z,998.9
2022-12-18T00:05:01.858Z,998.9
2022-12-18T00:06:02.440Z,998.9
2022-12-18T00:07:01.504Z,998.9
2022-12-18T00:08:02.291Z,999.0
2022-12-18T00:09:02.992Z,999.0
2022-12-18T00:10:01.465Z,998.9
2022-12-18T00:11:04.814Z,999.0
2022-12-18T00:13:03.908Z,999.0
2022-12-18T00:14:02.121Z,999.0
2022-12-18T00:15:01.465Z,999.0
2022-12-18T00:16:03.311Z,999.0
2022-12-18T00:17:01.448Z,999.0
2022-12-18T00:18:01.484Z,999.0
2022-12-18T00:19:02.021Z,999.0
2022-12-18T00:20:02.311Z,999.1
2022-12-18T00:21:03.697Z,999.1
2022-12-18T00:22:01.786Z,999.1
2022-12-18T00:23:01.861Z,999.1
2022-12-18T00:24:02.527Z,999.1
2022-12-18T00:25:02.078Z,999.2
2022-12-18T00:26:03.515Z,999.1
2022-12-18T00:27:01.810Z,999.2
2022-12-18T00:28:02.301Z,999.2
2022-12-18T00:29:03.825Z,999.3
2022-12-18T00:30:01.493Z,999.3
2022-12-18T00:31:02.605Z,999.2
2022-12-18T00:32:01.576Z,999.3
2022-12-18T00:33:01.479Z,999.3
2022-12-18T00:34:01.838Z,999.3
2022-12-18T00:35:02.327Z,999.3
2022-12-18T00:36:01.760Z,999.3
2022-12-18T00:37:01.796Z,999.4
2022-12-18T00:38:01.803Z,999.3
2022-12-18T00:39:04.056Z,999.3
2022-12-18T00:40:01.990Z,999.3
2022-12-18T00:41:02.069Z,999.3
2022-12-18T00:42:01.456Z,999.3
2022-12-18T00:43:01.475Z,999.3
2022-12-18T00:44:02.725Z,999.3
2022-12-18T00:45:01.801Z,999.3
2022-12-18T00:46:01.951Z,999.3
2022-12-18T00:47:01.458Z,999.2
2022-12-18T00:48:01.559Z,999.2
2022-12-18T00:49:02.840Z,999.2
2022-12-18T00:50:01.846Z,999.2
2022-12-18T00:51:01.786Z,999.2
2022-12-18T00:52:01.459Z,999.2
2022-12-18T00:53:01.800Z,999.2
2022-12-18T00:54:01.849Z,999.2
2022-12-18T00:55:06.260Z,999.2
2022-12-18T00:56:01.795Z,999.2
2022-12-18T00:57:01.861Z,999.2
2022-12-18T00:58:01.445Z,999.2
2022-12-18T00:59:01.480Z,999.2
2022-12-18T01:00:02.511Z,999.2
2022-12-18T01:01:03.967Z,999.2
2022-12-18T01:02:01.642Z,999.2
2022-12-18T01:03:02.550Z,999.3
2022-12-18T01:04:03.217Z,999.3
2022-12-18T01:05:01.462Z,999.3
2022-12-18T01:06:06.770Z,999.3
2022-12-18T01:07:01.465Z,999.3
2022-12-18T01:08:01.721Z,999.3
2022-12-18T01:09:01.884Z,999.3
2022-12-18T01:10:01.457Z,999.3
2022-12-18T01:11:07.256Z,999.3
2022-12-18T01:12:01.825Z,999.3
2022-12-18T01:13:01.465Z,999.3
2022-12-18T01:14:01.486Z,999.4
2022-12-18T01:15:01.953Z,999.3
2022-12-18T01:16:02.175Z,999.3
2022-12-18T01:17:01.790Z,999.4
2022-12-18T01:18:01.444Z,999.4
2022-12-18T01:19:02.068Z,999.4
2022-12-18T01:20:01.537Z,999.4
2022-12-18T01:21:06.070Z,999.4
2022-12-18T01:22:01.798Z,999.4
2022-12-18T01:23:01.474Z,999.5
2022-12-18T01:24:01.798Z,999.5
2022-12-18T01:25:03.264Z,999.5
2022-12-18T01:26:05.664Z,999.5
2022-12-18T01:27:01.822Z,999.5
2022-12-18T01:28:02.022Z,999.6
2022-12-18T01:29:01.451Z,999.6
2022-12-18T01:30:02.669Z,999.5
2022-12-18T01:31:12.610Z,999.6
2022-12-18T01:32:01.521Z,999.6
2022-12-18T01:33:01.470Z,999.6
2022-12-18T01:34:01.904Z,999.7
2022-12-18T01:35:01.684Z,999.8
2022-12-18T01:36:01.450Z,999.7
2022-12-18T01:37:03.223Z,999.8
2022-12-18T01:38:01.790Z,999.8
2022-12-18T01:39:03.797Z,999.9
2022-12-18T01:40:01.699Z,999.9
2022-12-18T01:41:02.400Z,999.9
2022-12-18T01:42:03.194Z,999.9
2022-12-18T01:43:01.823Z,999.9
2022-12-18T01:44:01.463Z,999.9
2022-12-18T01:45:04.705Z,999.9
2022-12-18T01:46:01.494Z,999.9
2022-12-18T01:47:01.608Z,999.9
2022-12-18T01:48:05.395Z,999.9
2022-12-18T01:49:02.295Z,999.9
2022-12-18T01:50:06.657Z,999.9
2022-12-18T01:51:01.734Z,999.9
2022-12-18T01:52:02.105Z,999.9
2022-12-18T01:53:10.170Z,999.9
2022-12-18T01:54:01.473Z,1000.0
2022-12-18T01:55:04.165Z,1000.0
2022-12-18T01:56:01.862Z,1000.0
2022-12-18T01:57:01.858Z,1000.0
2022-12-18T01:58:02.294Z,1000.0
2022-12-18T01:59:05.115Z,1000.0
2022-12-18T02:00:05.799Z,1000.0
2022-12-18T02:01:01.891Z,1000.0
2022-12-18T02:02:03.525Z,1000.0
2022-12-18T02:03:02.304Z,1000.0
2022-12-18T02:04:19.399Z,1000.0
2022-12-18T02:05:03.005Z,1000.0
2022-12-18T02:06:10.469Z,1000.0
2022-12-18T02:07:11.579Z,1000.0
2022-12-18T02:08:10.406Z,1000.0
2022-12-18T02:09:11.386Z,1000.0
2022-12-18T02:10:07.545Z,1000.1
2022-12-18T02:11:07.540Z,1000.1
2022-12-18T02:12:10.265Z,1000.1
2022-12-18T02:13:10.975Z,1000.1
2022-12-18T02:14:12.742Z,1000.1
2022-12-18T02:15:09.860Z,1000.0
2022-12-18T02:16:08.245Z,1000.1
2022-12-18T02:17:07.521Z,1000.1
2022-12-18T02:18:07.991Z,1000.1
2022-12-18T02:19:15.424Z,1000.1
2022-12-18T02:20:12.449Z,1000.1
2022-12-18T02:21:11.822Z,1000.1
2022-12-18T02:22:13.046Z,1000.1
2022-12-18T02:23:18.046Z,1000.1
2022-12-18T02:24:17.746Z,1000.1
2022-12-18T02:25:12.687Z,1000.1
2022-12-18T02:26:07.877Z,1000.1
2022-12-18T02:27:05.647Z,1000.1
2022-12-18T02:28:07.306Z,1000.1
2022-12-18T02:29:07.123Z,1000.1
2022-12-18T02:30:04.319Z,1000.2
2022-12-18T02:31:06.201Z,1000.1
2022-12-18T02:32:06.152Z,1000.1
2022-12-18T02:33:04.988Z,1000.1
2022-12-18T02:34:04.910Z,1000.2
2022-12-18T02:35:04.590Z,1000.2
2022-12-18T02:36:04.647Z,1000.2
2022-12-18T02:37:06.113Z,1000.2
2022-12-18T02:38:03.377Z,1000.2
2022-12-18T02:39:03.491Z,1000.2
2022-12-18T02:40:04.886Z,1000.2
2022-12-18T02:41:04.352Z,1000.3
2022-12-18T02:42:02.213Z,1000.3
2022-12-18T02:43:10.575Z,1000.3
2022-12-18T02:44:07.129Z,1000.3
2022-12-18T02:45:01.805Z,1000.3
2022-12-18T02:46:21.114Z,1000.3
2022-12-18T02:47:02.660Z,1000.3
2022-12-18T02:48:02.001Z,1000.3
2022-12-18T02:49:11.688Z,1000.3
2022-12-18T02:50:14.836Z,1000.3
2022-12-18T02:51:08.649Z,1000.3
2022-12-18T02:52:07.973Z,1000.3
2022-12-18T02:53:11.053Z,1000.3
2022-12-18T02:54:10.461Z,1000.4
2022-12-18T02:55:13.424Z,1000.4
2022-12-18T02:56:07.621Z,1000.4
2022-12-18T02:57:10.197Z,1000.4
2022-12-18T02:58:09.119Z,1000.4
2022-12-18T02:59:06.560Z,1000.4
2022-12-18T03:00:08.002Z,1000.4
2022-12-18T03:01:09.831Z,1000.4
2022-12-18T03:02:09.969Z,1000.5
2022-12-18T03:03:09.820Z,1000.5
2022-12-18T03:04:07.303Z,1000.5
2022-12-18T03:05:09.617Z,1000.5
2022-12-18T03:06:06.350Z,1000.5
2022-12-18T03:07:08.026Z,1000.5
2022-12-18T03:08:06.967Z,1000.5
2022-12-18T03:09:09.216Z,1000.5
2022-12-18T03:10:03.200Z,1000.5
2022-12-18T03:11:04.874Z,1000.5
2022-12-18T03:12:10.590Z,1000.5
2022-12-18T03:13:06.292Z,1000.5
2022-12-18T03:14:04.128Z,1000.6
2022-12-18T03:15:11.052Z,1000.6
2022-12-18T03:16:05.500Z,1000.5
2022-12-18T03:17:06.388Z,1000.5
2022-12-18T03:18:07.913Z,1000.6
2022-12-18T03:19:07.040Z,1000.6
2022-12-18T03:20:07.744Z,1000.6
2022-12-18T03:21:06.134Z,1000.6
2022-12-18T03:22:06.248Z,1000.6
2022-12-18T03:23:07.329Z,1000.6
2022-12-18T03:24:06.181Z,1000.6
2022-12-18T03:25:06.047Z,1000.6
2022-12-18T03:26:07.693Z,1000.6
2022-12-18T03:27:05.565Z,1000.6
2022-12-18T03:28:06.436Z,1000.6
2022-12-18T03:29:06.549Z,1000.7
2022-12-18T03:30:05.607Z,1000.6
2022-12-18T03:31:05.110Z,1000.6
2022-12-18T03:32:05.986Z,1000.6
2022-12-18T03:33:08.760Z,1000.6
2022-12-18T03:34:09.184Z,1000.6
2022-12-18T03:35:05.922Z,1000.6
2022-12-18T03:36:01.787Z,1000.6
2022-12-18T03:37:02.329Z,1000.6
2022-12-18T03:38:02.055Z,1000.6
2022-12-18T03:39:01.479Z,1000.5
2022-12-18T03:40:02.101Z,1000.6
2022-12-18T03:41:10.708Z,1000.6
2022-12-18T03:42:06.782Z,1000.6
2022-12-18T03:43:09.030Z,1000.6
2022-12-18T03:44:10.939Z,1000.6
2022-12-18T03:45:10.284Z,1000.6
2022-12-18T03:46:07.088Z,1000.6
2022-12-18T03:47:08.097Z,1000.6
2022-12-18T03:48:07.606Z,1000.5
2022-12-18T03:49:09.870Z,1000.5
2022-12-18T03:50:12.954Z,1000.5
2022-12-18T03:51:08.149Z,1000.5
2022-12-18T03:52:06.292Z,1000.5
2022-12-18T03:53:17.480Z,1000.4
2022-12-18T03:54:04.184Z,1000.4
2022-12-18T03:55:03.635Z,1000.4
2022-12-18T03:56:04.071Z,1000.4
2022-12-18T03:57:09.957Z,1000.5
2022-12-18T03:58:03.680Z,1000.4
2022-12-18T03:59:04.944Z,1000.4
2022-12-18T04:00:06.081Z,1000.4
2022-12-18T04:01:06.037Z,1000.4
2022-12-18T04:02:04.340Z,1000.4
2022-12-18T04:03:03.598Z,1000.4
2022-12-18T04:04:03.858Z,1000.4
2022-12-18T04:05:07.488Z,1000.4
2022-12-18T04:06:03.085Z,1000.4
2022-12-18T04:07:03.062Z,1000.4
2022-12-18T04:08:02.300Z,1000.4
2022-12-18T04:09:01.927Z,1000.4
2022-12-18T04:10:03.592Z,1000.3
2022-12-18T04:11:02.570Z,1000.3
2022-12-18T04:12:01.461Z,1000.3
2022-12-18T04:13:01.829Z,1000.4
2022-12-18T04:14:05.856Z,1000.3
2022-12-18T04:15:02.073Z,1000.3
2022-12-18T04:16:01.654Z,1000.4
2022-12-18T04:17:01.938Z,1000.4
2022-12-18T04:18:01.466Z,1000.4
2022-12-18T04:19:01.546Z,1000.4
2022-12-18T04:20:01.808Z,1000.4
2022-12-18T04:21:02.490Z,1000.4
2022-12-18T04:22:01.462Z,1000.4
2022-12-18T04:23:01.476Z,1000.4
2022-12-18T04:24:01.819Z,1000.4
2022-12-18T04:25:01.464Z,1000.4
2022-12-18T04:26:01.945Z,1000.4
2022-12-18T04:27:01.554Z,1000.4
2022-12-18T04:28:01.463Z,1000.4
2022-12-18T04:29:01.672Z,1000.3
2022-12-18T04:30:01.819Z,1000.4
2022-12-18T04:31:01.569Z,1000.4
2022-12-18T04:32:01.458Z,1000.4
2022-12-18T04:33:01.478Z,1000.3
2022-12-18T04:34:01.645Z,1000.4
2022-12-18T04:35:01.693Z,1000.3
2022-12-18T04:36:01.549Z,1000.3
2022-12-18T04:37:02.223Z,1000.4
2022-12-18T04:38:01.473Z,1000.3
2022-12-18T04:39:01.462Z,1000.3
2022-12-18T04:40:01.457Z,1000.3
2022-12-18T04:41:01.451Z,1000.3
2022-12-18T04:42:01.842Z,1000.3
2022-12-18T04:43:02.042Z,1000.3
2022-12-18T04:44:01.467Z,1000.3
2022-12-18T04:45:01.474Z,1000.3
2022-12-18T04:46:02.340Z,1000.4
2022-12-18T04:47:01.490Z,1000.4
2022-12-18T04:48:03.526Z,1000.5
2022-12-18T04:49:01.835Z,1000.4
2022-12-18T04:50:01.452Z,1000.5
2022-12-18T04:51:01.516Z,1000.4
2022-12-18T04:52:01.815Z,1000.5
2022-12-18T04:53:01.454Z,1000.5
2022-12-18T04:54:01.471Z,1000.5
2022-12-18T04:55:01.820Z,1000.4
2022-12-18T04:56:03.478Z,1000.4
2022-12-18T04:57:01.466Z,1000.4
2022-12-18T04:58:01.785Z,1000.4
2022-12-18T04:59:01.605Z,1000.4
2022-12-18T05:00:03.175Z,1000.4
2022-12-18T05:01:01.845Z,1000.4
2022-12-18T05:02:01.912Z,1000.5
2022-12-18T05:03:02.875Z,1000.5
2022-12-18T05:04:01.760Z,1000.5
2022-12-18T05:05:02.151Z,1000.5
2022-12-18T05:06:02.287Z,1000.5
2022-12-18T05:07:01.485Z,1000.5
2022-12-18T05:08:01.541Z,1000.5
2022-12-18T05:09:01.827Z,1000.6
2022-12-18T05:10:03.414Z,1000.6
2022-12-18T05:11:03.834Z,1000.5
2022-12-18T05:12:01.489Z,1000.6
2022-12-18T05:13:01.571Z,1000.6
2022-12-18T05:14:01.883Z,1000.6
2022-12-18T05:15:01.457Z,1000.6
2022-12-18T05:16:02.838Z,1000.6
2022-12-18T05:17:01.562Z,1000.5
2022-12-18T05:18:02.551Z,1000.6
2022-12-18T05:19:01.470Z,1000.6
2022-12-18T05:20:01.464Z,1000.6
2022-12-18T05:21:02.162Z,1000.6
2022-12-18T05:22:02.235Z,1000.6
2022-12-18T05:23:01.962Z,1000.6
2022-12-18T05:24:01.825Z,1000.6
2022-12-18T05:25:01.810Z,1000.6
2022-12-18T05:26:04.829Z,1000.6
2022-12-18T05:27:01.624Z,1000.6
2022-12-18T05:28:01.469Z,1000.6
2022-12-18T05:29:01.821Z,1000.6
2022-12-18T05:30:01.812Z,1000.6
2022-12-18T05:31:04.642Z,1000.5
2022-12-18T05:32:01.723Z,1000.5
2022-12-18T05:33:01.804Z,1000.5
2022-12-18T05:34:01.463Z,1000.5
2022-12-18T05:35:02.345Z,1000.5
2022-12-18T05:36:04.095Z,1000.5
2022-12-18T05:37:01.794Z,1000.5
2022-12-18T05:38:01.453Z,1000.5
2022-12-18T05:39:01.517Z,1000.5
2022-12-18T05:40:02.364Z,1000.5
2022-12-18T05:41:02.492Z,1000.5
2022-12-18T05:42:01.471Z,1000.5
2022-12-18T05:43:01.684Z,1000.4
2022-12-18T05:44:01.645Z,1000.4
2022-12-18T05:45:01.451Z,1000.5
2022-12-18T05:46:04.488Z,1000.4
2022-12-18T05:47:01.869Z,1000.4
2022-12-18T05:48:01.447Z,1000.4
2022-12-18T05:49:01.971Z,1000.4
2022-12-18T05:50:01.471Z,1000.4
2022-12-18T05:51:06.342Z,1000.4
2022-12-18T05:52:02.199Z,1000.4
2022-12-18T05:53:01.472Z,1000.4
2022-12-18T05:54:01.828Z,1000.4
2022-12-18T05:55:01.975Z,1000.4
2022-12-18T05:56:03.017Z,1000.4
2022-12-18T05:57:01.488Z,1000.5
2022-12-18T05:58:01.821Z,1000.5
2022-12-18T05:59:01.464Z,1000.5
2022-12-18T06:00:01.525Z,1000.5
2022-12-18T06:01:07.873Z,1000.5
2022-12-18T06:02:01.969Z,1000.5
2022-12-18T06:03:02.533Z,1000.5
2022-12-18T06:04:01.564Z,1000.5
2022-12-18T06:05:01.989Z,1000.5
2022-12-18T06:06:01.500Z,1000.5
2022-12-18T06:07:04.392Z,1000.5
2022-12-18T06:08:01.614Z,1000.5
2022-12-18T06:09:01.523Z,1000.6
2022-12-18T06:10:01.797Z,1000.6
2022-12-18T06:11:01.455Z,1000.6
2022-12-18T06:12:01.769Z,1000.7
2022-12-18T06:13:01.838Z,1000.7
2022-12-18T06:14:03.043Z,1000.7
2022-12-18T06:15:02.288Z,1000.7
2022-12-18T06:16:02.538Z,1000.8
2022-12-18T06:17:01.449Z,1000.8
2022-12-18T06:18:01.795Z,1000.8
2022-12-18T06:19:03.827Z,1000.8
2022-12-18T06:20:01.866Z,1000.9
2022-12-18T06:21:01.794Z,1000.9
2022-12-18T06:22:01.459Z,1000.9
2022-12-18T06:23:01.946Z,1001.0
2022-12-18T06:24:01.462Z,1001.0
2022-12-18T06:25:01.531Z,1001.0
2022-12-18T06:26:04.592Z,1001.0
2022-12-18T06:27:01.692Z,1001.0
2022-12-18T06:28:01.455Z,1001.0
2022-12-18T06:29:01.482Z,1001.1
2022-12-18T06:30:02.237Z,1001.1
2022-12-18T06:31:03.912Z,1001.1
2022-12-18T06:32:01.493Z,1001.1
2022-12-18T06:33:01.455Z,1001.2
2022-12-18T06:34:03.665Z,1001.2
2022-12-18T06:35:01.820Z,1001.3
2022-12-18T06:36:04.060Z,1001.3
2022-12-18T06:37:01.784Z,1001.3
2022-12-18T06:38:02.374Z,1001.3
2022-12-18T06:39:01.859Z,1001.3
2022-12-18T06:40:01.457Z,1001.4
2022-12-18T06:41:06.919Z,1001.4
2022-12-18T06:42:01.451Z,1001.3
2022-12-18T06:43:01.459Z,1001.4
2022-12-18T06:44:01.487Z,1001.4
2022-12-18T06:45:01.466Z,1001.4
2022-12-18T06:46:02.641Z,1001.4
2022-12-18T06:47:01.447Z,1001.4
2022-12-18T06:48:01.676Z,1001.4
2022-12-18T06:49:02.291Z,1001.4
2022-12-18T06:50:01.487Z,1001.4
2022-12-18T06:51:02.791Z,1001.4
2022-12-18T06:52:01.448Z,1001.5
2022-12-18T06:53:01.474Z,1001.5
2022-12-18T06:54:01.549Z,1001.5
2022-12-18T06:55:01.495Z,1001.5
2022-12-18T06:56:09.241Z,1001.5
2022-12-18T06:57:01.461Z,1001.5
2022-12-18T06:58:01.960Z,1001.5
2022-12-18T06:59:01.966Z,1001.6
2022-12-18T07:00:02.083Z,1001.6
2022-12-18T07:01:02.852Z,1001.6
2022-12-18T07:02:01.868Z,1001.7
2022-12-18T07:03:02.064Z,1001.7
2022-12-18T07:04:01.474Z,1001.7
2022-12-18T07:05:07.440Z,1001.7
2022-12-18T07:06:02.811Z,1001.8
2022-12-18T07:07:01.794Z,1001.8
2022-12-18T07:08:01.449Z,1001.8
2022-12-18T07:09:01.462Z,1001.8
2022-12-18T07:10:01.834Z,1001.8
2022-12-18T07:11:04.238Z,1001.8
2022-12-18T07:12:01.895Z,1001.8
2022-12-18T07:13:01.495Z,1001.8
2022-12-18T07:14:01.542Z,1001.8
2022-12-18T07:15:01.602Z,1001.8
2022-12-18T07:16:10.891Z,1001.7
2022-12-18T07:17:01.956Z,1001.8
2022-12-18T07:18:01.942Z,1001.8
2022-12-18T07:19:01.479Z,1001.7
2022-12-18T07:20:01.485Z,1001.7
2022-12-18T07:21:04.137Z,1001.8
2022-12-18T07:22:02.355Z,1001.8
2022-12-18T07:23:02.349Z,1001.8
2022-12-18T07:24:01.451Z,1001.8
2022-12-18T07:25:01.474Z,1001.8
2022-12-18T07:26:02.927Z,1001.8
2022-12-18T07:27:01.962Z,1001.9
2022-12-18T07:28:02.258Z,1001.9
2022-12-18T07:29:01.820Z,1001.9
2022-12-18T07:30:01.509Z,1001.9
2022-12-18T07:31:03.851Z,1001.9
2022-12-18T07:32:01.581Z,1001.9
2022-12-18T07:33:01.567Z,1001.9
2022-12-18T07:34:01.829Z,1002.0
2022-12-18T07:35:01.853Z,1002.0
2022-12-18T07:36:03.669Z,1001.9
2022-12-18T07:37:01.926Z,1001.9
2022-12-18T07:38:01.445Z,1001.9
2022-12-18T07:39:01.797Z,1001.9
2022-12-18T07:40:01.516Z,1001.9
2022-12-18T07:41:02.551Z,1002.0
2022-12-18T07:42:01.797Z,1002.0
2022-12-18T07:43:01.845Z,1002.0
2022-12-18T07:44:01.800Z,1002.0
2022-12-18T07:45:02.572Z,1002.0
2022-12-18T07:46:01.560Z,1002.0
2022-12-18T07:47:01.836Z,1002.0
2022-12-18T07:48:01.452Z,1002.0
2022-12-18T07:49:01.458Z,1002.0
2022-12-18T07:50:01.485Z,1002.1
2022-12-18T07:51:03.117Z,1002.1
2022-12-18T07:52:01.458Z,1002.1
2022-12-18T07:53:01.463Z,1002.1
2022-12-18T07:54:01.451Z,1002.1
2022-12-18T07:55:02.664Z,1002.1
2022-12-18T07:56:26.534Z,1002.1
2022-12-18T07:57:01.607Z,1002.0
2022-12-18T07:58:02.279Z,1002.1
2022-12-18T07:59:01.537Z,1002.0
2022-12-18T08:00:01.844Z,1002.0
2022-12-18T08:01:04.491Z,1002.0
2022-12-18T08:02:01.889Z,1002.0
2022-12-18T08:03:02.104Z,1002.0
2022-12-18T08:04:01.461Z,1002.0
2022-12-18T08:05:01.450Z,1002.0
2022-12-18T08:06:02.364Z,1002.0
2022-12-18T08:07:01.551Z,1002.0
2022-12-18T08:08:01.789Z,1002.0
2022-12-18T08:09:01.464Z,1002.0
2022-12-18T08:10:01.854Z,1002.0
2022-12-18T08:11:02.290Z,1002.0
2022-12-18T08:12:01.458Z,1001.9
2022-12-18T08:13:04.859Z,1001.9
2022-12-18T08:14:01.824Z,1001.9
2022-12-18T08:15:01.469Z,1001.9
2022-12-18T08:16:04.207Z,1001.9
2022-12-18T08:17:02.033Z,1001.9
2022-12-18T08:18:01.443Z,1001.9
2022-12-18T08:19:02.240Z,1001.9
2022-12-18T08:20:01.488Z,1001.9
2022-12-18T08:21:09.427Z,1001.9
2022-12-18T08:22:01.778Z,1001.9
2022-12-18T08:23:01.820Z,1001.9
2022-12-18T08:24:02.356Z,1001.9
2022-12-18T08:25:01.967Z,1001.9
2022-12-18T08:26:01.825Z,1001.9
2022-12-18T08:27:29.755Z,1001.9
2022-12-18T08:28:01.596Z,1001.9
2022-12-18T08:29:01.963Z,1001.9
2022-12-18T08:30:01.744Z,1001.9
2022-12-18T08:31:01.534Z,1001.9
2022-12-18T08:32:01.522Z,1002.0
2022-12-18T08:33:01.463Z,1002.0
2022-12-18T08:34:01.853Z,1002.0
2022-12-18T08:35:01.818Z,1002.0
2022-12-18T08:36:02.741Z,1002.0
2022-12-18T08:37:01.798Z,1002.0
2022-12-18T08:38:01.446Z,1002.0
2022-12-18T08:39:01.820Z,1002.0
2022-12-18T08:40:02.342Z,1002.0
2022-12-18T08:41:03.501Z,1002.0
2022-12-18T08:42:04.191Z,1002.0
2022-12-18T08:43:01.467Z,1002.0
2022-12-18T08:44:01.476Z,1002.0
2022-12-18T08:45:02.149Z,1002.0
2022-12-18T08:46:01.853Z,1002.0
2022-12-18T08:47:01.803Z,1002.0
2022-12-18T08:48:01.465Z,1002.1
2022-12-18T08:49:02.409Z,1002.0
2022-12-18T08:50:02.453Z,1002.0
2022-12-18T08:51:01.891Z,1002.1
2022-12-18T08:52:01.970Z,1002.0
2022-12-18T08:53:01.843Z,1002.1
2022-12-18T08:54:02.390Z,1002.1
2022-12-18T08:55:01.787Z,1002.1
2022-12-18T08:56:02.012Z,1002.0
2022-12-18T08:57:01.836Z,1002.0
2022-12-18T08:58:01.469Z,1002.0
2022-12-18T08:59:02.117Z,1002.0
2022-12-18T09:00:01.443Z,1002.0
2022-12-18T09:01:02.707Z,1002.0
2022-12-18T09:02:01.995Z,1002.0
2022-12-18T09:03:01.584Z,1002.0
2022-12-18T09:04:01.930Z,1002.0
2022-12-18T09:05:01.788Z,1002.0
2022-12-18T09:06:01.827Z,1002.0
2022-12-18T09:07:01.819Z,1002.0
2022-12-18T09:08:01.484Z,1002.0
2022-12-18T09:09:02.016Z,1002.0
2022-12-18T09:10:01.482Z,1002.0
2022-12-18T09:11:03.130Z,1002.0
2022-12-18T09:12:01.704Z,1002.1
2022-12-18T09:13:01.456Z,1002.1
2022-12-18T09:14:02.187Z,1002.1
2022-12-18T09:15:01.835Z,1002.1
2022-12-18T09:16:04.016Z,1002.1
2022-12-18T09:17:02.020Z,1002.1
2022-12-18T09:18:01.463Z,1002.1
2022-12-18T09:19:04.368Z,1002.1
2022-12-18T09:20:01.793Z,1002.1
2022-12-18T09:21:09.333Z,1002.1
2022-12-18T09:22:01.450Z,1002.0
2022-12-18T09:23:02.177Z,1002.1
2022-12-18T09:24:01.846Z,1002.1
2022-12-18T09:25:01.812Z,1002.0
2022-12-18T09:26:01.802Z,1002.0
2022-12-18T09:27:01.961Z,1002.0
2022-12-18T09:28:02.546Z,1002.0
2022-12-18T09:29:02.736Z,1002.0
2022-12-18T09:30:03.278Z,1002.1
2022-12-18T09:31:06.001Z,1002.0
2022-12-18T09:32:01.462Z,1002.0
2022-12-18T09:33:01.495Z,1002.0
2022-12-18T09:34:02.081Z,1002.1
2022-12-18T09:35:01.826Z,1002.1
2022-12-18T09:36:03.325Z,1002.1
2022-12-18T09:37:01.463Z,1002.1
2022-12-18T09:38:01.452Z,1002.1
2022-12-18T09:39:07.863Z,1002.1
2022-12-18T09:40:01.445Z,1002.1
2022-12-18T09:41:06.815Z,1002.1
2022-12-18T09:42:01.848Z,1002.1
2022-12-18T09:43:05.185Z,1002.2
2022-12-18T09:44:11.465Z,1002.2
2022-12-18T09:45:03.772Z,1002.2
2022-12-18T09:46:06.564Z,1002.2
2022-12-18T09:47:10.133Z,1002.2
2022-12-18T09:48:02.359Z,1002.2
2022-12-18T09:49:05.332Z,1002.2
2022-12-18T09:50:17.267Z,1002.1
2022-12-18T09:51:11.651Z,1002.2
2022-12-18T09:52:08.652Z,1002.1
2022-12-18T09:53:06.861Z,1002.1
2022-12-18T09:54:07.084Z,1002.1
2022-12-18T09:55:06.669Z,1002.1
2022-12-18T09:56:04.368Z,1002.1
2022-12-18T09:57:02.200Z,1002.1
2022-12-18T09:58:11.753Z,1002.1
2022-12-18T09:59:04.273Z,1002.1
2022-12-18T10:00:11.773Z,1002.1
2022-12-18T10:01:01.992Z,1002.1
2022-12-18T10:02:15.540Z,1002.1
2022-12-18T10:03:09.141Z,1002.1
2022-12-18T10:04:01.523Z,1002.1
2022-12-18T10:05:08.369Z,1002.1
2022-12-18T10:06:11.139Z,1002.1
2022-12-18T10:07:11.626Z,1002.1
2022-12-18T10:08:11.249Z,1002.1
2022-12-18T10:09:11.585Z,1002.1
2022-12-18T10:10:11.809Z,1002.1
2022-12-18T10:11:12.341Z,1002.1
2022-12-18T10:12:08.697Z,1002.1
2022-12-18T10:13:12.671Z,1002.1
2022-12-18T10:14:10.053Z,1002.1
2022-12-18T10:15:10.658Z,1002.1
2022-12-18T10:16:12.904Z,1002.1
2022-12-18T10:17:14.092Z,1002.1
2022-12-18T10:18:18.732Z,1002.1
2022-12-18T10:19:12.671Z,1002.1
2022-12-18T10:20:10.759Z,1002.1
2022-12-18T10:21:10.686Z,1002.1
2022-12-18T10:22:11.415Z,1002.1
2022-12-18T10:23:10.734Z,1002.1
2022-12-18T10:24:16.187Z,1002.1
2022-12-18T10:25:12.899Z,1002.2
2022-12-18T10:26:04.502Z,1002.2
2022-12-18T10:27:14.182Z,1002.2
2022-12-18T10:28:12.745Z,1002.2
2022-12-18T10:29:05.568Z,1002.2
2022-12-18T10:30:11.562Z,1002.2
2022-12-18T10:31:02.155Z,1002.2
2022-12-18T10:32:01.469Z,1002.2
2022-12-18T10:33:02.284Z,1002.3
2022-12-18T10:34:01.455Z,1002.2
2022-12-18T10:35:01.849Z,1002.3
2022-12-18T10:36:01.458Z,1002.3
2022-12-18T10:37:06.559Z,1002.2
2022-12-18T10:38:06.807Z,1002.2
2022-12-18T10:39:15.614Z,1002.2
2022-12-18T10:40:09.478Z,1002.3
2022-12-18T10:41:03.701Z,1002.3
2022-12-18T10:42:11.680Z,1002.3
2022-12-18T10:43:04.757Z,1002.3
2022-12-18T10:44:14.980Z,1002.3
2022-12-18T10:45:04.180Z,1002.3
2022-12-18T10:46:12.275Z,1002.3
2022-12-18T10:47:11.704Z,1002.3
2022-12-18T10:48:01.869Z,1002.3
2022-12-18T10:49:01.853Z,1002.3
2022-12-18T10:50:01.989Z,1002.3
2022-12-18T10:51:12.674Z,1002.3
2022-12-18T10:52:12.917Z,1002.3
2022-12-18T10:53:04.763Z,1002.3
2022-12-18T10:54:04.333Z,1002.4
2022-12-18T10:55:04.538Z,1002.3
2022-12-18T10:56:04.635Z,1002.4
2022-12-18T10:57:15.270Z,1002.3
2022-12-18T10:58:26.323Z,1002.4
2022-12-18T10:59:04.176Z,1002.4
2022-12-18T11:00:20.874Z,1002.4
2022-12-18T11:01:07.697Z,1002.4
2022-12-18T11:02:01.981Z,1002.5
2022-12-18T11:03:01.864Z,1002.4
2022-12-18T11:04:08.396Z,1002.4
2022-12-18T11:05:03.342Z,1002.4
2022-12-18T11:06:06.281Z,1002.4
2022-12-18T11:07:04.833Z,1002.4
2022-12-18T11:08:02.072Z,1002.3
2022-12-18T11:09:09.358Z,1002.3
2022-12-18T11:10:02.545Z,1002.3
2022-12-18T11:11:02.178Z,1002.3
2022-12-18T11:12:04.369Z,1002.3
2022-12-18T11:13:15.469Z,1002.3
2022-12-18T11:14:04.246Z,1002.3
2022-12-18T11:15:01.617Z,1002.3
2022-12-18T11:16:02.072Z,1002.3
2022-12-18T11:17:25.825Z,1002.4
2022-12-18T11:18:01.535Z,1002.3
2022-12-18T11:19:14.558Z,1002.3
2022-12-18T11:20:04.472Z,1002.3
2022-12-18T11:21:08.145Z,1002.3
2022-12-18T11:22:13.059Z,1002.3
2022-12-18T11:23:05.142Z,1002.3
2022-12-18T11:24:01.689Z,1002.3
2022-12-18T11:25:34.469Z,1002.2
2022-12-18T11:26:04.438Z,1002.2
2022-12-18T11:27:04.545Z,1002.2
2022-12-18T11:28:04.598Z,1002.2
2022-12-18T11:29:09.840Z,1002.2
2022-12-18T11:30:09.476Z,1002.2
2022-12-18T11:31:17.262Z,1002.2
2022-12-18T11:32:20.869Z,1002.2
2022-12-18T11:33:05.662Z,1002.2
2022-12-18T11:34:29.238Z,1002.2
2022-12-18T11:35:14.950Z,1002.2
2022-12-18T11:36:05.937Z,1002.2
2022-12-18T11:37:03.803Z,1002.2
2022-12-18T11:38:10.535Z,1002.3
2022-12-18T11:39:09.377Z,1002.3
2022-12-18T11:40:09.752Z,1002.3
2022-12-18T11:41:07.528Z,1002.3
2022-12-18T11:42:09.057Z,1002.3
2022-12-18T11:43:09.917Z,1002.3
2022-12-18T11:44:07.201Z,1002.3
2022-12-18T11:45:17.872Z,1002.3
2022-12-18T11:46:07.289Z,1002.3
2022-12-18T11:47:09.832Z,1002.4
2022-12-18T11:48:09.702Z,1002.3
2022-12-18T11:49:07.872Z,1002.3
2022-12-18T11:50:12.150Z,1002.3
2022-12-18T11:51:06.193Z,1002.2
2022-12-18T11:52:11.135Z,1002.3
2022-12-18T11:53:05.580Z,1002.2
2022-12-18T11:54:10.130Z,1002.2
2022-12-18T11:55:11.703Z,1002.2
2022-12-18T11:56:17.525Z,1002.2
2022-12-18T11:57:11.633Z,1002.2
2022-12-18T11:58:10.622Z,1002.2
2022-12-18T11:59:17.555Z,1002.1
2022-12-18T12:00:05.135Z,1002.1
2022-12-18T12:01:12.948Z,1002.2
2022-12-18T12:02:20.776Z,1002.1
2022-12-18T12:03:20.570Z,1002.2
2022-12-18T12:04:18.708Z,1002.2
2022-12-18T12:05:19.722Z,1002.2
2022-12-18T12:06:10.412Z,1002.2
2022-12-18T12:07:16.587Z,1002.2
2022-12-18T12:08:10.327Z,1002.2
2022-12-18T12:09:10.080Z,1002.3
2022-12-18T12:10:12.579Z,1002.2
2022-12-18T12:11:13.666Z,1002.2
2022-12-18T12:12:20.667Z,1002.3
2022-12-18T12:13:20.875Z,1002.3
2022-12-18T12:14:15.190Z,1002.3
2022-12-18T12:15:13.248Z,1002.4
2022-12-18T12:16:16.008Z,1002.4
2022-12-18T12:17:10.410Z,1002.4
2022-12-18T12:18:11.438Z,1002.4
2022-12-18T12:19:20.596Z,1002.4
2022-12-18T12:20:13.282Z,1002.4
2022-12-18T12:21:11.074Z,1002.5
2022-12-18T12:22:12.797Z,1002.5
2022-12-18T12:23:11.627Z,1002.5
2022-12-18T12:24:19.908Z,1002.5
2022-12-18T12:25:14.436Z,1002.6
2022-12-18T12:26:06.300Z,1002.6
2022-12-18T12:27:06.996Z,1002.6
2022-12-18T12:28:15.806Z,1002.6
2022-12-18T12:29:10.642Z,1002.6
2022-12-18T12:30:14.859Z,1002.6
2022-12-18T12:31:05.867Z,1002.7
2022-12-18T12:32:11.553Z,1002.7
2022-12-18T12:33:12.379Z,1002.7